• Join FlightAware (Why Join?)
  • Login
  • US Flag 
09:31PM EDT


 

Airport Tracker/Info


-or-


 

Live Flight TrackerFlight Track Log ✈ DAL858 ✈ 30-Nov-2013 ✈ KMSP - KBOS

Flight Track Log - Related Links

Times and Time Zones

All times are in EST time to prevent confusion due to time zone crossing. See the DAL858 flight status page for this flight to view local times or setup timezone preferences in your user account.

Time Position Orientation Groundspeed Altitude Reporting Facility
EST Latitude Longitude Course Direction KTS MPH feet Rate Location/Type
04:25PM 44.9333 -93.2500 34° Northeast 188 216 3,200  Level Minneapolis TRACON
04:26PM 44.8730 -92.6551 70° East  Level Estimated
04:26PM 45.0103 -93.2569 356° North 230 265 6,600  Level Minneapolis Center
04:27PM 44.8694 -92.4663 68° East  Level Estimated
04:27PM 45.0453 -93.1589 63° Northeast 285 328 8,800  Level Minneapolis Center
04:28PM 44.8655 -92.2775 70° East  Level Estimated
04:28PM 45.0797 -93.0447 67° East 311 358 11,000  Level Minneapolis Center
04:29PM 44.8613 -92.0887 70° East  Level Estimated
04:29PM 45.1208 -92.9083 67° East 372 428 12,700  Level Minneapolis Center
04:30PM 44.9722 -91.9829 34° Northeast  Level FlightAware Approximate
04:30PM 45.1636 -92.7650 67° East 392 451 14,900  Level Minneapolis Center
04:31PM 45.2083 -92.6119 67° East 418 481 17,100 2,280 Climbing Minneapolis Center
04:32PM 45.2622 -92.4278 67° East 421 484 19,600 2,280 Climbing Minneapolis Center
04:33PM 45.3061 -92.2708 68° East 426 490 21,800 1,740 Climbing Minneapolis Center
04:34PM 45.3128 -92.0942 87° East 448 516 23,300 1,140 Climbing Minneapolis Center
04:35PM 45.3022 -91.9083 95° East 469 540 24,200 960 Climbing Minneapolis Center
04:36PM 45.2897 -91.7144 95° East 489 563 25,300 1,020 Climbing Minneapolis Center
04:37PM 45.2772 -91.5158 95° East 502 578 26,400 1,080 Climbing Minneapolis Center
04:38PM 45.2625 -91.3150 96° East 508 585 27,600 1,200 Climbing Minneapolis Center
04:39PM 45.2472 -91.0939 96° East 516 594 28,900 1,200 Climbing Minneapolis Center
04:40PM 45.2344 -90.8914 95° East 517 595 30,100 1,260 Climbing Minneapolis Center
04:41PM 45.2164 -90.6881 97° East 519 597 31,500 1,260 Climbing Minneapolis Center
04:42PM 45.2011 -90.4533 95° East 507 583 32,800 1,200 Climbing Minneapolis Center
04:43PM 45.1872 -90.2558 96° East 505 581 34,000 840 Climbing Minneapolis Center
04:44PM 45.1722 -90.0611 96° East 502 578 34,600 480 Climbing Minneapolis Center
04:45PM 45.1564 -89.8658 96° East 502 578 35,000 180 Climbing Minneapolis Center
04:46PM 45.1408 -89.6739 96° East 497 572 35,000  Level Minneapolis Center
04:47PM 45.1244 -89.4794 97° East 499 574 35,000  Level Minneapolis Center
04:48PM 45.1075 -89.2856 97° East 500 575 35,000  Level Minneapolis Center
04:49PM 45.0878 -89.0522 97° East 501 577 35,000  Level Minneapolis Center
04:50PM 45.0711 -88.8583 97° East 500 575 35,000  Level Minneapolis Center
04:51PM 45.0539 -88.6656 97° East 498 573 35,000  Level Minneapolis Center
04:52PM 45.0350 -88.4581 97° East 498 573 35,000  Level Minneapolis Center
04:53PM 45.0161 -88.2581 98° East 499 574 35,000  Level Minneapolis Center
04:54PM 44.9978 -88.0722 98° East 496 571 35,000  Level Minneapolis Center
04:56PM 44.9794 -87.8786 98° East 497 572 35,000  Level Minneapolis Center
04:57PM 44.9614 -87.6853 97° East 497 572 35,000  Level Minneapolis Center
04:58PM 44.9414 -87.4919 98° East 499 574 35,000  Level Minneapolis Center
04:59PM 44.9214 -87.2983 98° East 500 575 35,000  Level Minneapolis Center
05:00PM 44.8972 -87.0664 98° East 500 575 35,000  Level Minneapolis Center
05:01PM 44.8764 -86.8733 99° East 499 574 35,000  Level Minneapolis Center
05:02PM 44.8553 -86.6772 99° East 503 579 35,000  Level Minneapolis Center
05:03PM 44.8344 -86.4831 99° East 503 579 35,000  Level Minneapolis Center
05:04PM 44.8133 -86.2919 99° East 499 574 35,000  Level Minneapolis Center
05:05PM 44.7914 -86.1011 99° East 496 571 35,000  Level Minneapolis Center
05:06PM 44.7694 -85.9083 99° East 498 573 35,000  Level Minneapolis Center
05:07PM 44.7464 -85.7144 99° East 500 575 35,000  Level Minneapolis Center
05:08PM 44.7225 -85.5056 99° East 499 574 35,000  Level Minneapolis Center
05:09PM 44.6992 -85.3139 100° East 500 575 35,000  Level Minneapolis Center
05:10PM 44.6756 -85.1214 100° East 501 577 35,000  Level Minneapolis Center
05:11PM 44.6525 -84.9289 99° East 500 575 35,000  Level Minneapolis Center
05:12PM 44.6233 -84.6975 100° East 503 579 35,000  Level Minneapolis Center
05:13PM 44.5989 -84.5058 100° East 502 578 35,000  Level Minneapolis Center
05:14PM 44.5750 -84.3136 100° East 502 578 35,000  Level Minneapolis Center
05:15PM 44.5494 -84.1217 101° East 502 578 35,000  Level Minneapolis Center
05:16PM 44.5242 -83.9300 100° East 502 578 35,000  Level Minneapolis Center
05:17PM 44.4994 -83.7394 100° East 500 575 35,000  Level Minneapolis Center
05:18PM 44.4725 -83.5497 101° East 499 574 35,000  Level Minneapolis Center
05:19PM 44.4461 -83.3594 101° East 500 575 35,000  Level Minneapolis Center
05:20PM 44.4031 -83.1342 105° East 500 575 35,000  Level Minneapolis Center
05:21PM 44.3656 -82.9464 106° East 502 578 35,000  Level Minneapolis Center
05:22PM 44.3275 -82.7586 106° East 503 579 35,000  Level Minneapolis Center
05:23PM 44.2917 -82.5711 105° East 502 578 35,000  Level Minneapolis Center
05:24PM 44.2533 -82.3839 106° East 502 578 35,000  Level Minneapolis Center
05:25PM 44.2167 -82.1975 105° East 501 577 35,000  Level Minneapolis Center
05:26PM 44.1500 -81.9833 113° Southeast 500 575 35,000  Level Toronto Center
05:27PM 44.1167 -81.7667 102° East 500 575 35,100  Climbing Toronto Center
05:28PM 44.0833 -81.6000 106° East 500 575 35,000 -60 Descending Toronto Center
05:29PM 44.0333 -81.4167 111° Southeast 500 575 35,000  Level Toronto Center
05:30PM 44.0000 -81.2333 104° East 500 575 35,000  Level Toronto Center
05:31PM 43.9500 -81.0500 111° Southeast 500 575 35,000  Level Toronto Center
05:32PM 43.9167 -80.8667 104° East 500 575 35,100  Climbing Toronto Center
05:33PM 43.8833 -80.6667 103° East 500 575 35,000 -60 Descending Toronto Center
05:34PM 43.8500 -80.5167 107° East 490 564 35,000  Level Toronto Center
05:35PM 43.8000 -80.3000 108° East 490 564 35,000  Level Toronto Center
05:36PM 43.7667 -80.1333 105° East 490 564 35,000  Level Toronto Center
05:37PM 43.7333 -79.9500 104° East 490 564 35,000  Level Toronto Center
05:38PM 43.6833 -79.7667 111° Southeast 490 564 35,000  Level Toronto Center
05:39PM 43.6500 -79.6167 107° East 490 564 35,000  Level Toronto Center
05:40PM 43.6167 -79.4333 104° East 490 564 35,000  Level Toronto Center
05:41PM 43.6000 -79.2167 96° East 490 564 35,000  Level Toronto Center
05:42PM 43.5667 -79.0333 104° East 490 564 35,000  Level Toronto Center
05:43PM 43.5500 -78.8500 97° East 490 564 35,000  Level Toronto Center
05:44PM 43.5333 -78.6667 97° East 490 564 35,000  Level Toronto Center
05:45PM 43.4833 -78.4833 111° Southeast 490 564 35,000  Level Toronto Center
05:46PM 43.4667 -78.3000 97° East 490 564 35,000  Level Toronto Center
05:47PM 43.4333 -78.1167 104° East 490 564 35,000  Level Toronto Center
05:48PM 43.4167 -77.9333 97° East 490 564 35,000  Level Toronto Center
05:49PM 43.4203 -77.8983 82° East 487 560 35,000  Level Cleveland Center
05:50PM 43.3875 -77.6794 102° East 486 559 35,000  Level Cleveland Center
05:51PM 43.3600 -77.4947 102° East 489 563 35,000  Level Cleveland Center
05:52PM 43.3331 -77.3117 101° East 489 563 35,100  Climbing Cleveland Center
05:53PM 43.3056 -77.1294 102° East 486 559 35,100 -60 Level Cleveland Center
05:54PM 43.2786 -76.9544 102° East 483 556 35,000 -60 Descending Cleveland Center
05:55PM 43.2500 -76.7744 102° East 484 557 35,000  Level Cleveland Center
05:56PM 43.2175 -76.5589 102° East 483 556 35,000  Level Cleveland Center
05:57PM 43.1883 -76.3789 102° East 485 558 35,000  Level Cleveland Center
05:58PM 43.1717 -76.2719 102° East 484 557 35,000  Level Boston Center
05:59PM 43.1425 -76.0931 103° East 484 557 35,000  Level Boston Center
06:00PM 43.1142 -75.9139 102° East 484 557 35,000  Level Boston Center
06:01PM 43.0850 -75.7381 103° East 482 555 35,000  Level Boston Center
06:02PM 43.0564 -75.5608 102° East 483 556 35,000  Level Boston Center
06:03PM 43.0200 -75.3508 103° East 482 555 35,000  Level Boston Center
06:04PM 42.9906 -75.1769 103° East 478 550 35,000  Level Boston Center
06:05PM 42.9608 -74.9989 103° East 484 557 35,000  Level Boston Center
06:06PM 42.9306 -74.8258 103° East 475 547 35,000  Level Boston Center
06:07PM 42.9003 -74.6517 103° East 475 547 35,000  Level Boston Center
06:08PM 42.8692 -74.4767 104° East 475 547 35,000  Level Boston Center
06:09PM 42.8397 -74.3017 103° East 476 548 35,000 -600 Level Boston Center
06:10PM 42.8142 -74.0881 99° East 477 549 33,800 -1,020 Descending Boston Center
06:11PM 42.7939 -73.9375 100° East 481 554 33,000 -900 Descending Boston Center
06:12PM 42.7708 -73.7533 100° East 489 563 32,000 -1,080 Descending Boston Center
06:13PM 42.7436 -73.5328 99° East 492 566 30,900 -1,080 Descending Boston Center
06:14PM 42.7203 -73.3478 100° East 493 567 29,900 -900 Descending Boston Center
06:15PM 42.6967 -73.1619 100° East 497 572 29,100 -720 Descending Boston Center
06:16PM 42.6744 -72.9878 100° East 502 578 28,500 -840 Descending Boston Center
06:17PM 42.6489 -72.8011 100° East 503 579 27,500 -1,020 Descending Boston Center
06:18PM 42.6253 -72.6175 100° East 499 574 26,500 -1,740 Descending Boston Center
06:19PM 42.5994 -72.4328 101° East 495 570 24,100 -2,760 Descending Boston Center
06:20PM 42.5742 -72.2414 100° East 461 531 21,000 -3,000 Descending Boston Center
06:21PM 42.5478 -72.0589 101° East 446 513 18,000 -2,460 Descending Boston Center
06:22PM 42.5336 -71.9006 97° East 427 491 16,000 -2,280 Descending Boston Center
06:23PM 42.5186 -71.7450 97° East 419 482 13,400 -2,400 Descending Boston Center
06:24PM 42.5053 -71.6014 97° East 384 442 11,100 -1,560 Descending Boston Center
06:25PM 42.4919 -71.4675 98° East 334 384 10,200 -1,140 Descending Boston Center
06:26PM 42.4817 -71.3553 97° East 305 351 8,900 -1,440 Descending Boston Center
06:27PM 42.4711 -71.2456 97° East 296 341 7,300 -1,500 Descending Boston Center
06:28PM 42.4983 -71.1406 71° East 278 320 5,900 -1,320 Descending Boston Center
06:29PM 42.5369 -71.0636 56° Northeast 251 289 4,700 -1,080 Descending Boston Center
06:30PM 42.5467 -70.9906 80° East 206 237 3,800 -1,200 Descending Boston Center
06:31PM 42.5056 -70.9603 151° Southeast 176 203 2,300 -960 Descending Boston Center
06:32PM 42.4614 -70.9581 178° South 160 184 1,800 -660 Descending Boston Center
06:34PM 42.4167 -70.9833 203° Southwest 120 138 900 -780 Descending KA90
06:35PM 42.3833 -71.0000 200° South 124 143 300 -720 Descending KA90